createdAt,value
2019-04-14T00:01:35.514Z,20.80
2019-04-14T00:04:22.607Z,20.80
2019-04-14T00:06:53.123Z,20.80
2019-04-14T00:09:23.583Z,20.80
2019-04-14T00:11:54.785Z,20.80
2019-04-14T00:14:25.432Z,20.70
2019-04-14T00:16:55.828Z,20.80
2019-04-14T00:19:26.218Z,20.80
2019-04-14T00:22:00.837Z,20.80
2019-04-14T00:24:31.350Z,20.80
2019-04-14T00:27:02.054Z,20.80
2019-04-14T00:29:34.940Z,20.80
2019-04-14T00:32:05.856Z,20.80
2019-04-14T00:34:46.283Z,20.80
2019-04-14T00:37:35.937Z,20.80
2019-04-14T00:40:21.577Z,20.80
2019-04-14T00:43:09.558Z,20.70
2019-04-14T00:45:48.884Z,20.80
2019-04-14T00:48:21.490Z,20.70
2019-04-14T00:50:53.939Z,20.70
2019-04-14T00:53:25.435Z,20.70
2019-04-14T00:55:59.736Z,20.70
2019-04-14T00:58:25.720Z,20.70
2019-04-14T01:00:58.007Z,20.70
2019-04-14T01:03:28.753Z,20.80
2019-04-14T01:05:59.251Z,20.70
2019-04-14T01:08:29.756Z,20.70
2019-04-14T01:11:03.131Z,20.70
2019-04-14T01:13:33.535Z,20.70
2019-04-14T01:16:11.531Z,20.70
2019-04-14T01:18:40.737Z,20.70
2019-04-14T01:21:11.166Z,20.80
2019-04-14T01:23:41.632Z,20.70
2019-04-14T01:26:11.991Z,20.70
2019-04-14T01:28:42.472Z,20.70
2019-04-14T01:31:13.978Z,20.70
2019-04-14T01:33:44.480Z,20.70
2019-04-14T01:36:17.060Z,20.70
2019-04-14T01:38:47.370Z,20.70
2019-04-14T01:41:17.770Z,20.70
2019-04-14T01:43:49.517Z,20.70
2019-04-14T01:46:25.806Z,20.70
2019-04-14T01:48:52.146Z,20.70
2019-04-14T01:51:44.122Z,20.70
2019-04-14T01:54:41.369Z,20.70
2019-04-14T01:57:22.046Z,20.70
2019-04-14T02:00:31.600Z,20.70
2019-04-14T02:05:51.739Z,20.70
2019-04-14T02:08:22.118Z,20.70
2019-04-14T02:10:54.395Z,20.70
2019-04-14T02:13:24.946Z,20.70
2019-04-14T02:15:55.269Z,20.70
2019-04-14T02:18:25.617Z,20.70
2019-04-14T02:20:56.058Z,20.70
2019-04-14T02:23:26.450Z,20.70
2019-04-14T02:28:39.659Z,20.70
2019-04-14T02:34:48.050Z,20.60
2019-04-14T02:37:24.319Z,20.70
2019-04-14T02:39:56.071Z,20.70
2019-04-14T02:44:53.561Z,20.60
2019-04-14T02:47:45.234Z,20.60
2019-04-14T02:50:02.722Z,20.60
2019-04-14T02:52:28.230Z,20.60
2019-04-14T02:54:59.983Z,20.60
2019-04-14T02:57:57.539Z,20.60
2019-04-14T03:03:05.901Z,20.60
2019-04-14T03:05:34.379Z,20.70
2019-04-14T03:08:08.261Z,20.60
2019-04-14T03:10:40.207Z,20.60
2019-04-14T03:13:15.855Z,20.60
2019-04-14T03:15:39.808Z,20.60
2019-04-14T03:21:29.750Z,20.60
2019-04-14T03:27:30.890Z,20.60
2019-04-14T03:30:48.890Z,20.60
2019-04-14T03:33:27.048Z,20.60
2019-04-14T03:40:56.063Z,20.60
2019-04-14T03:48:36.470Z,20.50
2019-04-14T03:50:38.770Z,20.50
2019-04-14T03:55:55.428Z,20.50
2019-04-14T04:03:47.886Z,20.50
2019-04-14T04:06:18.428Z,20.50
2019-04-14T04:08:48.938Z,20.50
2019-04-14T04:11:19.441Z,20.50
2019-04-14T04:13:49.940Z,20.50
2019-04-14T04:16:31.173Z,20.50
2019-04-14T04:19:08.570Z,20.50
2019-04-14T04:21:55.221Z,20.50
2019-04-14T04:24:41.088Z,20.50
2019-04-14T04:27:28.754Z,20.50
2019-04-14T04:30:31.787Z,20.50
2019-04-14T04:33:22.002Z,20.50
2019-04-14T04:35:56.738Z,20.50
2019-04-14T04:38:35.932Z,20.50
2019-04-14T04:41:10.162Z,20.50
2019-04-14T04:43:40.838Z,20.50
2019-04-14T04:46:11.366Z,20.50
2019-04-14T04:48:41.817Z,20.50
2019-04-14T04:51:13.944Z,20.50
2019-04-14T04:53:44.344Z,20.50
2019-04-14T04:58:52.302Z,20.50
2019-04-14T05:01:23.191Z,20.50
2019-04-14T05:03:53.721Z,20.60
2019-04-14T05:07:07.799Z,20.60
2019-04-14T05:09:49.084Z,20.60
2019-04-14T05:15:09.494Z,20.60
2019-04-14T05:17:41.431Z,20.60
2019-04-14T05:20:11.862Z,20.70
2019-04-14T05:22:42.328Z,20.70
2019-04-14T05:27:51.639Z,20.70
2019-04-14T05:30:21.968Z,20.70
2019-04-14T05:32:52.375Z,20.70
2019-04-14T05:35:22.779Z,20.70
2019-04-14T05:37:53.081Z,20.80
2019-04-14T05:40:23.517Z,20.80
2019-04-14T05:42:57.985Z,20.80
2019-04-14T05:45:24.087Z,20.80
2019-04-14T05:47:54.415Z,20.80
2019-04-14T05:50:24.992Z,20.80
2019-04-14T05:52:55.769Z,20.90
2019-04-14T05:55:26.517Z,20.90
2019-04-14T05:57:57.095Z,21.00
2019-04-14T06:00:27.864Z,20.90
2019-04-14T06:02:59.407Z,21.00
2019-04-14T06:07:59.983Z,21.10
2019-04-14T06:10:31.093Z,21.10
2019-04-14T06:13:01.579Z,21.10
2019-04-14T06:15:30.699Z,21.10
2019-04-14T06:18:01.223Z,21.10
2019-04-14T06:20:31.554Z,21.10
2019-04-14T06:23:01.248Z,21.20
2019-04-14T06:25:31.668Z,21.20
2019-04-14T06:28:21.235Z,21.20
2019-04-14T06:33:59.128Z,21.20
2019-04-14T06:36:48.531Z,21.30
2019-04-14T06:39:34.060Z,21.40
2019-04-14T06:42:04.824Z,21.40
2019-04-14T06:44:35.157Z,21.40
2019-04-14T06:47:05.572Z,21.50
2019-04-14T06:49:36.017Z,21.50
2019-04-14T06:52:06.435Z,21.60
2019-04-14T06:54:36.852Z,21.60
2019-04-14T06:57:07.278Z,21.60
2019-04-14T06:59:37.823Z,21.60
2019-04-14T07:02:08.696Z,21.70
2019-04-14T07:04:40.567Z,21.70
2019-04-14T07:07:10.972Z,21.80
2019-04-14T07:09:52.999Z,21.80
2019-04-14T07:12:23.422Z,21.90
2019-04-14T07:14:53.832Z,21.80
2019-04-14T07:17:24.217Z,21.90
2019-04-14T07:20:01.948Z,21.90
2019-04-14T07:22:26.781Z,22.00
2019-04-14T07:24:57.157Z,22.00
2019-04-14T07:27:26.712Z,22.10
2019-04-14T07:30:18.923Z,22.10
2019-04-14T07:32:58.061Z,22.10
2019-04-14T07:35:46.029Z,22.10
2019-04-14T07:38:25.663Z,22.10
2019-04-14T07:41:22.310Z,22.20
2019-04-14T07:43:51.606Z,22.20
2019-04-14T07:46:46.821Z,22.20
2019-04-14T07:49:36.275Z,22.20
2019-04-14T07:52:40.680Z,22.20
2019-04-14T07:55:35.739Z,22.30
2019-04-14T07:58:25.121Z,22.30
2019-04-14T08:00:59.610Z,22.30
2019-04-14T08:03:48.952Z,22.40
2019-04-14T08:06:21.900Z,22.40
2019-04-14T08:08:52.076Z,22.40
2019-04-14T08:11:24.818Z,22.40
2019-04-14T08:13:55.222Z,22.40
2019-04-14T08:16:25.602Z,22.50
2019-04-14T08:18:56.059Z,22.50
2019-04-14T08:21:26.446Z,22.50
2019-04-14T08:24:01.560Z,22.50
2019-04-14T08:26:33.002Z,22.60
2019-04-14T08:29:03.388Z,22.60
2019-04-14T08:31:33.754Z,22.60
2019-04-14T08:34:04.171Z,22.60
2019-04-14T08:36:35.589Z,22.60
2019-04-14T08:39:06.971Z,22.60
2019-04-14T08:41:59.597Z,22.70
2019-04-14T08:44:36.129Z,22.70
2019-04-14T08:47:10.755Z,22.70
2019-04-14T08:49:41.978Z,22.70
2019-04-14T08:52:46.793Z,22.70
2019-04-14T08:58:41.000Z,22.70
2019-04-14T09:01:13.477Z,22.70
2019-04-14T09:03:52.416Z,22.70
2019-04-14T09:06:24.520Z,22.70
2019-04-14T09:09:14.663Z,22.80
2019-04-14T09:11:57.699Z,22.80
2019-04-14T09:14:28.154Z,22.80
2019-04-14T09:16:58.602Z,22.70
2019-04-14T09:19:28.899Z,22.80
2019-04-14T09:21:59.404Z,22.80
2019-04-14T09:24:29.718Z,22.80
2019-04-14T09:27:00.163Z,22.80
2019-04-14T09:29:30.551Z,22.80
2019-04-14T09:32:01.274Z,22.80
2019-04-14T09:34:31.677Z,22.80
2019-04-14T09:37:02.095Z,22.80
2019-04-14T09:39:33.512Z,22.80
2019-04-14T09:42:03.997Z,22.70
2019-04-14T09:44:34.419Z,22.70
2019-04-14T09:47:04.722Z,22.80
2019-04-14T09:49:35.210Z,22.80
2019-04-14T09:52:05.624Z,22.70
2019-04-14T09:54:36.100Z,22.80
2019-04-14T09:57:07.544Z,22.70
2019-04-14T09:59:37.958Z,22.70
2019-04-14T10:02:08.369Z,22.80
2019-04-14T10:04:39.853Z,22.70
2019-04-14T10:07:10.277Z,22.70
2019-04-14T10:09:40.732Z,22.80
2019-04-14T10:12:11.147Z,22.80
2019-04-14T10:14:41.554Z,22.80
2019-04-14T10:17:11.986Z,22.70
2019-04-14T10:19:42.511Z,22.70
2019-04-14T10:22:14.125Z,22.70
2019-04-14T10:24:44.598Z,22.70
2019-04-14T10:27:16.106Z,22.70
2019-04-14T10:30:06.063Z,22.70
2019-04-14T10:32:36.611Z,22.70
2019-04-14T10:35:07.068Z,22.70
2019-04-14T10:37:37.524Z,22.70
2019-04-14T10:40:08.003Z,22.70
2019-04-14T10:42:38.537Z,22.70
2019-04-14T10:45:08.934Z,22.70
2019-04-14T10:47:39.428Z,22.70
2019-04-14T10:50:09.751Z,22.70
2019-04-14T10:52:40.258Z,22.70
2019-04-14T10:55:10.671Z,22.70
2019-04-14T10:57:41.253Z,22.70
2019-04-14T11:00:14.513Z,22.70
2019-04-14T11:02:45.143Z,22.70
2019-04-14T11:05:15.516Z,22.70
2019-04-14T11:07:45.846Z,22.70
2019-04-14T11:10:16.159Z,22.70
2019-04-14T11:12:46.674Z,22.70
2019-04-14T11:15:16.944Z,22.70
2019-04-14T11:17:47.328Z,22.70
2019-04-14T11:20:17.733Z,22.70
2019-04-14T11:22:48.073Z,22.70
2019-04-14T11:25:18.565Z,22.70
2019-04-14T11:27:48.938Z,22.70
2019-04-14T11:30:21.194Z,22.70
2019-04-14T11:33:09.127Z,22.60
2019-04-14T11:35:57.488Z,22.70
2019-04-14T11:38:40.619Z,22.70
2019-04-14T11:41:14.605Z,22.60
2019-04-14T11:43:45.037Z,22.60
2019-04-14T11:46:15.557Z,22.60
2019-04-14T11:48:45.883Z,22.60
2019-04-14T11:51:16.390Z,22.60
2019-04-14T11:53:46.871Z,22.60
2019-04-14T11:56:17.318Z,22.60
2019-04-14T11:58:59.626Z,22.60
2019-04-14T12:01:47.753Z,22.60
2019-04-14T12:04:37.144Z,22.60
2019-04-14T12:07:32.656Z,22.60
2019-04-14T12:10:14.759Z,22.60
2019-04-14T12:12:45.113Z,22.60
2019-04-14T12:15:16.605Z,22.60
2019-04-14T12:17:47.188Z,22.60
2019-04-14T12:20:17.626Z,22.60
2019-04-14T12:22:47.996Z,22.60
2019-04-14T12:25:18.385Z,22.60
2019-04-14T12:27:48.943Z,22.60
2019-04-14T12:30:20.181Z,22.60
2019-04-14T12:32:50.668Z,22.60
2019-04-14T12:35:21.147Z,22.60
2019-04-14T12:37:51.518Z,22.60
2019-04-14T12:40:21.822Z,22.60
2019-04-14T12:43:08.782Z,22.50
2019-04-14T12:45:56.881Z,22.50
2019-04-14T12:48:36.179Z,22.60
2019-04-14T12:51:10.794Z,22.60
2019-04-14T12:53:42.110Z,22.50
2019-04-14T12:56:26.848Z,22.50
2019-04-14T12:59:16.303Z,22.50
2019-04-14T13:02:06.265Z,22.50
2019-04-14T13:04:37.799Z,22.50
2019-04-14T13:07:08.250Z,22.50
2019-04-14T13:09:38.744Z,22.50
2019-04-14T13:12:10.473Z,22.50
2019-04-14T13:14:41.012Z,22.50
2019-04-14T13:17:11.328Z,22.50
2019-04-14T13:19:41.757Z,22.50
2019-04-14T13:22:12.211Z,22.50
2019-04-14T13:24:42.695Z,22.50
2019-04-14T13:27:13.120Z,22.50
2019-04-14T13:29:43.558Z,22.50
2019-04-14T13:32:14.016Z,22.50
2019-04-14T13:34:44.409Z,22.50
2019-04-14T13:37:14.907Z,22.50
2019-04-14T13:39:45.212Z,22.50
2019-04-14T13:42:15.600Z,22.40
2019-04-14T13:44:45.985Z,22.50
2019-04-14T13:47:17.347Z,22.40
2019-04-14T13:49:47.827Z,22.40
2019-04-14T13:52:18.308Z,22.40
2019-04-14T13:54:48.688Z,22.40
2019-04-14T13:57:19.184Z,22.40
2019-04-14T13:59:49.636Z,22.40
2019-04-14T14:02:20.152Z,22.40
2019-04-14T14:04:50.635Z,22.40
2019-04-14T14:07:21.125Z,22.40
2019-04-14T14:09:51.540Z,22.40
2019-04-14T14:12:49.906Z,22.40
2019-04-14T14:15:54.294Z,22.40
2019-04-14T14:18:47.533Z,22.40
2019-04-14T14:21:35.723Z,22.30
2019-04-14T14:24:28.087Z,22.40
2019-04-14T14:26:58.564Z,22.40
2019-04-14T14:29:28.987Z,22.40
2019-04-14T14:32:00.220Z,22.40
2019-04-14T14:34:30.551Z,22.40
2019-04-14T14:37:00.919Z,22.30
2019-04-14T14:39:31.318Z,22.30
2019-04-14T14:42:20.895Z,22.30
2019-04-14T14:45:03.920Z,22.30
2019-04-14T14:47:34.828Z,22.30
2019-04-14T14:50:21.377Z,22.30
2019-04-14T14:52:51.792Z,22.30
2019-04-14T14:55:22.228Z,22.30
2019-04-14T14:58:11.667Z,22.30
2019-04-14T15:00:41.993Z,22.30
2019-04-14T15:03:12.486Z,22.30
2019-04-14T15:05:42.777Z,22.30
2019-04-14T15:08:13.596Z,22.20
2019-04-14T15:10:44.160Z,22.20
2019-04-14T15:13:14.544Z,22.20
2019-04-14T15:15:44.980Z,22.20
2019-04-14T15:18:15.382Z,22.20
2019-04-14T15:20:45.692Z,22.20
2019-04-14T15:23:24.697Z,22.20
2019-04-14T15:25:49.163Z,22.20
2019-04-14T15:28:19.587Z,22.20
2019-04-14T15:30:50.025Z,22.20
2019-04-14T15:33:20.559Z,22.20
2019-04-14T15:35:50.830Z,22.20
2019-04-14T15:38:21.309Z,22.20
2019-04-14T15:40:51.662Z,22.20
2019-04-14T15:43:22.028Z,22.20
2019-04-14T15:45:52.462Z,22.20
2019-04-14T15:48:22.874Z,22.20
2019-04-14T15:50:53.299Z,22.20
2019-04-14T15:53:23.749Z,22.20
2019-04-14T15:55:54.216Z,22.20
2019-04-14T15:58:42.726Z,22.20
2019-04-14T16:01:44.292Z,22.10
2019-04-14T16:04:21.572Z,22.20
2019-04-14T16:07:10.886Z,22.10
2019-04-14T16:09:52.789Z,22.10
2019-04-14T16:12:31.527Z,22.10
2019-04-14T16:15:27.320Z,22.10
2019-04-14T16:18:16.776Z,22.10
2019-04-14T16:20:47.147Z,22.10
2019-04-14T16:23:17.559Z,22.10
2019-04-14T16:25:58.967Z,22.10
2019-04-14T16:28:57.464Z,22.10
2019-04-14T16:31:45.559Z,22.10
2019-04-14T16:34:19.367Z,22.10
2019-04-14T16:36:50.282Z,22.10
2019-04-14T16:39:20.717Z,22.10
2019-04-14T16:41:51.162Z,22.10
2019-04-14T16:44:21.595Z,22.10
2019-04-14T16:46:52.021Z,22.00
2019-04-14T16:49:22.446Z,22.00
2019-04-14T16:52:21.094Z,22.00
2019-04-14T16:54:56.867Z,22.00
2019-04-14T16:57:45.365Z,22.00
2019-04-14T17:00:21.732Z,22.00
2019-04-14T17:02:52.600Z,22.00
2019-04-14T17:05:23.035Z,22.00
2019-04-14T17:07:53.783Z,22.00
2019-04-14T17:10:24.249Z,22.00
2019-04-14T17:12:54.778Z,22.00
2019-04-14T17:15:36.464Z,22.00
2019-04-14T17:18:32.723Z,22.00
2019-04-14T17:21:37.259Z,22.00
2019-04-14T17:24:37.668Z,22.00
2019-04-14T17:27:27.913Z,21.90
2019-04-14T17:30:29.275Z,21.90
2019-04-14T17:33:17.649Z,21.90
2019-04-14T17:35:53.072Z,21.90
2019-04-14T17:38:41.414Z,21.90
2019-04-14T17:41:20.882Z,21.90
2019-04-14T17:44:01.729Z,21.90
2019-04-14T17:46:57.662Z,21.80
2019-04-14T17:49:44.595Z,21.90
2019-04-14T17:52:29.579Z,21.90
2019-04-14T17:55:11.631Z,21.90
2019-04-14T17:57:59.582Z,21.80
2019-04-14T18:01:01.348Z,21.90
2019-04-14T18:03:36.588Z,21.90
2019-04-14T18:06:12.027Z,21.80
2019-04-14T18:08:59.982Z,21.80
2019-04-14T18:11:35.529Z,21.80
2019-04-14T18:14:14.602Z,21.80
2019-04-14T18:17:19.303Z,21.80
2019-04-14T18:19:53.822Z,21.80
2019-04-14T18:22:25.313Z,21.80
2019-04-14T18:24:55.692Z,21.80
2019-04-14T18:27:26.208Z,21.80
2019-04-14T18:30:06.689Z,21.80
2019-04-14T18:32:43.538Z,21.80
2019-04-14T18:35:23.260Z,21.80
2019-04-14T18:38:18.747Z,21.80
2019-04-14T18:41:23.302Z,21.80
2019-04-14T18:44:03.740Z,21.70
2019-04-14T18:46:45.794Z,21.70
2019-04-14T18:49:27.143Z,21.70
2019-04-14T18:52:06.580Z,21.70
2019-04-14T18:54:54.986Z,21.70
2019-04-14T18:57:43.870Z,21.70
2019-04-14T19:00:31.677Z,21.70
2019-04-14T19:03:02.064Z,21.70
2019-04-14T19:05:33.450Z,21.70
2019-04-14T19:08:03.927Z,21.70
2019-04-14T19:10:34.236Z,21.70
2019-04-14T19:13:23.651Z,21.60
2019-04-14T19:16:07.576Z,21.60
2019-04-14T19:18:43.968Z,21.60
2019-04-14T19:21:32.824Z,21.60
2019-04-14T19:24:03.393Z,21.60
2019-04-14T19:26:33.799Z,21.60
2019-04-14T19:29:04.274Z,21.60
2019-04-14T19:31:34.683Z,21.60
2019-04-14T19:34:04.978Z,21.60
2019-04-14T19:36:35.443Z,21.60
2019-04-14T19:39:08.888Z,21.60
2019-04-14T19:41:39.272Z,21.60
2019-04-14T19:44:09.601Z,21.60
2019-04-14T19:46:39.999Z,21.50
2019-04-14T19:49:10.549Z,21.60
2019-04-14T19:51:40.975Z,21.50
2019-04-14T19:54:11.375Z,21.50
2019-04-14T19:56:41.848Z,21.60
2019-04-14T19:59:13.330Z,21.60
2019-04-14T20:01:43.747Z,21.60
2019-04-14T20:04:14.129Z,21.50
2019-04-14T20:06:44.582Z,21.50
2019-04-14T20:09:15.089Z,21.60
2019-04-14T20:11:45.857Z,21.50
2019-04-14T20:14:16.237Z,21.50
2019-04-14T20:17:05.840Z,21.50
2019-04-14T20:19:53.407Z,21.50
2019-04-14T20:22:29.083Z,21.50
2019-04-14T20:25:33.734Z,21.50
2019-04-14T20:28:05.613Z,21.50
2019-04-14T20:30:45.769Z,21.40
2019-04-14T20:33:16.156Z,21.40
2019-04-14T20:35:46.622Z,21.50
2019-04-14T20:38:16.975Z,21.40
2019-04-14T20:40:47.436Z,21.40
2019-04-14T20:43:17.928Z,21.40
2019-04-14T20:45:48.423Z,21.50
2019-04-14T20:48:18.972Z,21.40
2019-04-14T20:50:49.418Z,21.40
2019-04-14T20:53:19.887Z,21.50
2019-04-14T20:55:50.358Z,21.40
2019-04-14T20:58:20.781Z,21.40
2019-04-14T21:00:51.169Z,21.40
2019-04-14T21:03:39.289Z,21.40
2019-04-14T21:06:14.566Z,21.40
2019-04-14T21:09:09.518Z,21.40
2019-04-14T21:11:56.706Z,21.40
2019-04-14T21:15:01.549Z,21.40
2019-04-14T21:17:56.730Z,21.40
2019-04-14T21:20:36.496Z,21.30
2019-04-14T21:23:14.121Z,21.40
2019-04-14T21:26:00.919Z,21.30
2019-04-14T21:28:45.448Z,21.40
2019-04-14T21:31:31.411Z,21.30
2019-04-14T21:34:23.896Z,21.30
2019-04-14T21:37:27.732Z,21.30
2019-04-14T21:40:05.148Z,21.30
2019-04-14T21:42:35.651Z,21.30
2019-04-14T21:45:06.568Z,21.30
2019-04-14T21:47:37.468Z,21.30
2019-04-14T21:50:07.919Z,21.30
2019-04-14T21:52:49.380Z,21.30
2019-04-14T21:55:18.469Z,21.30
2019-04-14T21:57:57.337Z,21.30
2019-04-14T22:01:25.847Z,21.30
2019-04-14T22:04:04.243Z,21.30
2019-04-14T22:06:37.649Z,21.20
2019-04-14T22:09:14.196Z,21.30
2019-04-14T22:11:44.698Z,21.20
2019-04-14T22:14:15.157Z,21.30
2019-04-14T22:16:45.754Z,21.20
2019-04-14T22:19:16.175Z,21.20
2019-04-14T22:21:47.587Z,21.20
2019-04-14T22:24:18.151Z,21.30
2019-04-14T22:26:48.587Z,21.20
2019-04-14T22:29:18.963Z,21.20
2019-04-14T22:32:00.755Z,21.30
2019-04-14T22:34:31.223Z,21.20
2019-04-14T22:37:01.651Z,21.20
2019-04-14T22:39:32.139Z,21.20
2019-04-14T22:42:02.556Z,21.20
2019-04-14T22:44:32.846Z,21.20
2019-04-14T22:47:03.233Z,21.20
2019-04-14T22:49:33.646Z,21.20
2019-04-14T22:52:04.191Z,21.20
2019-04-14T22:54:34.616Z,21.20
2019-04-14T22:57:05.085Z,21.20
2019-04-14T22:59:35.553Z,21.20
2019-04-14T23:02:14.509Z,21.10
2019-04-14T23:05:09.668Z,21.20
2019-04-14T23:07:58.656Z,21.10
2019-04-14T23:10:54.732Z,21.10
2019-04-14T23:13:35.353Z,21.10
2019-04-14T23:16:19.551Z,21.10
2019-04-14T23:19:06.534Z,21.20
2019-04-14T23:21:47.527Z,21.10
2019-04-14T23:24:20.768Z,21.10
2019-04-14T23:26:52.731Z,21.10
2019-04-14T23:29:23.224Z,21.10
2019-04-14T23:31:53.740Z,21.10
2019-04-14T23:34:24.186Z,21.10
2019-04-14T23:36:54.633Z,21.10
2019-04-14T23:39:24.935Z,21.10
2019-04-14T23:41:55.308Z,21.10
2019-04-14T23:44:25.609Z,21.10
2019-04-14T23:46:56.076Z,21.10
2019-04-14T23:49:26.578Z,21.10
2019-04-14T23:51:57.082Z,21.10
2019-04-14T23:54:27.466Z,21.00
2019-04-14T23:57:05.313Z,21.10
2019-04-14T23:59:30.155Z,21.00
